sensor_id;sensor_type;location;lat;lon;timestamp;P1;durP1;ratioP1;P2;durP2;ratioP2
23266;SDS011;11802;53.160;8.214;2023-10-19T00:00:40;23.20;;;13.50;;
23266;SDS011;11802;53.160;8.214;2023-10-19T00:03:10;19.93;;;13.87;;
23266;SDS011;11802;53.160;8.214;2023-10-19T00:05:36;21.60;;;15.37;;
23266;SDS011;11802;53.160;8.214;2023-10-19T00:08:03;23.57;;;14.70;;
23266;SDS011;11802;53.160;8.214;2023-10-19T00:10:45;20.87;;;15.07;;
23266;SDS011;11802;53.160;8.214;2023-10-19T00:13:13;21.17;;;15.30;;
23266;SDS011;11802;53.160;8.214;2023-10-19T00:15:40;23.53;;;15.93;;
23266;SDS011;11802;53.160;8.214;2023-10-19T00:18:12;26.17;;;17.13;;
23266;SDS011;11802;53.160;8.214;2023-10-19T00:20:41;23.43;;;15.93;;
23266;SDS011;11802;53.160;8.214;2023-10-19T00:23:10;22.30;;;16.10;;
23266;SDS011;11802;53.160;8.214;2023-10-19T00:25:38;24.80;;;16.67;;
23266;SDS011;11802;53.160;8.214;2023-10-19T00:28:06;24.87;;;16.30;;
23266;SDS011;11802;53.160;8.214;2023-10-19T00:30:32;24.23;;;17.03;;
23266;SDS011;11802;53.160;8.214;2023-10-19T00:33:01;26.97;;;17.20;;
23266;SDS011;11802;53.160;8.214;2023-10-19T00:35:40;24.07;;;17.27;;
23266;SDS011;11802;53.160;8.214;2023-10-19T00:38:21;27.40;;;18.30;;
23266;SDS011;11802;53.160;8.214;2023-10-19T00:41:00;26.27;;;18.20;;
23266;SDS011;11802;53.160;8.214;2023-10-19T00:43:46;26.73;;;18.37;;
23266;SDS011;11802;53.160;8.214;2023-10-19T00:46:17;26.73;;;17.80;;
23266;SDS011;11802;53.160;8.214;2023-10-19T00:48:44;27.07;;;19.40;;
23266;SDS011;11802;53.160;8.214;2023-10-19T00:51:14;27.97;;;19.33;;
23266;SDS011;11802;53.160;8.214;2023-10-19T00:54:17;29.53;;;18.87;;
23266;SDS011;11802;53.160;8.214;2023-10-19T00:56:59;29.10;;;20.00;;
23266;SDS011;11802;53.160;8.214;2023-10-19T00:59:38;32.43;;;19.33;;
23266;SDS011;11802;53.160;8.214;2023-10-19T01:02:08;30.03;;;21.00;;
23266;SDS011;11802;53.160;8.214;2023-10-19T01:04:50;27.07;;;18.63;;
23266;SDS011;11802;53.160;8.214;2023-10-19T01:07:32;30.77;;;19.67;;
23266;SDS011;11802;53.160;8.214;2023-10-19T01:10:07;27.40;;;19.10;;
23266;SDS011;11802;53.160;8.214;2023-10-19T01:12:36;31.93;;;20.67;;
23266;SDS011;11802;53.160;8.214;2023-10-19T01:17:47;35.17;;;22.33;;
23266;SDS011;11802;53.160;8.214;2023-10-19T01:20:18;33.87;;;22.10;;
23266;SDS011;11802;53.160;8.214;2023-10-19T01:22:48;36.47;;;23.63;;
23266;SDS011;11802;53.160;8.214;2023-10-19T01:28:28;31.73;;;21.40;;
23266;SDS011;11802;53.160;8.214;2023-10-19T01:33:52;38.87;;;23.40;;
23266;SDS011;11802;53.160;8.214;2023-10-19T01:36:20;33.33;;;22.97;;
23266;SDS011;11802;53.160;8.214;2023-10-19T01:38:46;35.87;;;22.47;;
23266;SDS011;11802;53.160;8.214;2023-10-19T01:41:12;33.97;;;22.87;;
23266;SDS011;11802;53.160;8.214;2023-10-19T01:43:42;35.70;;;22.90;;
23266;SDS011;11802;53.160;8.214;2023-10-19T01:46:09;37.43;;;23.43;;
23266;SDS011;11802;53.160;8.214;2023-10-19T01:48:38;32.77;;;23.77;;
23266;SDS011;11802;53.160;8.214;2023-10-19T01:51:06;36.37;;;24.30;;
23266;SDS011;11802;53.160;8.214;2023-10-19T01:53:35;37.10;;;25.33;;
23266;SDS011;11802;53.160;8.214;2023-10-19T01:56:05;36.43;;;24.30;;
23266;SDS011;11802;53.160;8.214;2023-10-19T01:58:34;37.83;;;24.70;;
23266;SDS011;11802;53.160;8.214;2023-10-19T02:01:01;37.87;;;24.40;;
23266;SDS011;11802;53.160;8.214;2023-10-19T02:03:32;36.40;;;23.73;;
23266;SDS011;11802;53.160;8.214;2023-10-19T02:06:00;39.70;;;26.20;;
23266;SDS011;11802;53.160;8.214;2023-10-19T02:08:35;35.63;;;24.60;;
23266;SDS011;11802;53.160;8.214;2023-10-19T02:11:03;41.43;;;26.47;;
23266;SDS011;11802;53.160;8.214;2023-10-19T02:13:38;42.93;;;23.77;;
23266;SDS011;11802;53.160;8.214;2023-10-19T02:16:04;40.30;;;26.17;;
23266;SDS011;11802;53.160;8.214;2023-10-19T02:18:31;38.53;;;25.97;;
23266;SDS011;11802;53.160;8.214;2023-10-19T02:20:59;39.47;;;25.50;;
23266;SDS011;11802;53.160;8.214;2023-10-19T02:23:27;39.67;;;25.50;;
23266;SDS011;11802;53.160;8.214;2023-10-19T02:25:53;40.80;;;26.27;;
23266;SDS011;11802;53.160;8.214;2023-10-19T02:28:19;39.80;;;25.80;;
23266;SDS011;11802;53.160;8.214;2023-10-19T02:30:54;43.30;;;27.33;;
23266;SDS011;11802;53.160;8.214;2023-10-19T02:33:19;41.77;;;26.40;;
23266;SDS011;11802;53.160;8.214;2023-10-19T02:35:45;44.40;;;27.50;;
23266;SDS011;11802;53.160;8.214;2023-10-19T02:38:12;43.50;;;26.73;;
23266;SDS011;11802;53.160;8.214;2023-10-19T02:40:38;46.23;;;29.30;;
23266;SDS011;11802;53.160;8.214;2023-10-19T02:43:04;39.93;;;25.43;;
23266;SDS011;11802;53.160;8.214;2023-10-19T02:45:29;38.90;;;26.00;;
23266;SDS011;11802;53.160;8.214;2023-10-19T02:47:56;42.97;;;26.80;;
23266;SDS011;11802;53.160;8.214;2023-10-19T02:50:23;41.77;;;26.60;;
23266;SDS011;11802;53.160;8.214;2023-10-19T02:52:51;42.33;;;25.93;;
23266;SDS011;11802;53.160;8.214;2023-10-19T02:55:18;43.17;;;25.87;;
23266;SDS011;11802;53.160;8.214;2023-10-19T02:57:48;40.97;;;26.33;;
23266;SDS011;11802;53.160;8.214;2023-10-19T03:00:15;42.33;;;27.20;;
23266;SDS011;11802;53.160;8.214;2023-10-19T03:02:44;40.40;;;26.17;;
23266;SDS011;11802;53.160;8.214;2023-10-19T03:05:10;42.90;;;27.73;;
23266;SDS011;11802;53.160;8.214;2023-10-19T03:07:39;40.63;;;26.23;;
23266;SDS011;11802;53.160;8.214;2023-10-19T03:10:08;45.97;;;28.43;;
23266;SDS011;11802;53.160;8.214;2023-10-19T03:12:47;42.27;;;26.67;;
23266;SDS011;11802;53.160;8.214;2023-10-19T03:15:14;42.50;;;26.17;;
23266;SDS011;11802;53.160;8.214;2023-10-19T03:17:40;42.37;;;27.90;;
23266;SDS011;11802;53.160;8.214;2023-10-19T03:20:06;43.27;;;27.67;;
23266;SDS011;11802;53.160;8.214;2023-10-19T03:22:36;47.80;;;29.90;;
23266;SDS011;11802;53.160;8.214;2023-10-19T03:25:03;45.47;;;28.17;;
23266;SDS011;11802;53.160;8.214;2023-10-19T03:27:50;42.97;;;27.73;;
23266;SDS011;11802;53.160;8.214;2023-10-19T03:30:16;44.57;;;28.47;;
23266;SDS011;11802;53.160;8.214;2023-10-19T03:32:44;45.97;;;28.73;;
23266;SDS011;11802;53.160;8.214;2023-10-19T03:35:09;43.07;;;28.47;;
23266;SDS011;11802;53.160;8.214;2023-10-19T03:37:40;44.67;;;27.70;;
23266;SDS011;11802;53.160;8.214;2023-10-19T03:40:06;45.20;;;29.17;;
23266;SDS011;11802;53.160;8.214;2023-10-19T03:42:34;44.33;;;28.27;;
23266;SDS011;11802;53.160;8.214;2023-10-19T03:45:05;41.47;;;27.23;;
23266;SDS011;11802;53.160;8.214;2023-10-19T03:47:38;45.70;;;27.67;;
23266;SDS011;11802;53.160;8.214;2023-10-19T03:50:04;43.43;;;28.13;;
23266;SDS011;11802;53.160;8.214;2023-10-19T03:52:38;43.90;;;27.10;;
23266;SDS011;11802;53.160;8.214;2023-10-19T03:55:04;40.67;;;27.80;;
23266;SDS011;11802;53.160;8.214;2023-10-19T03:57:48;46.47;;;29.43;;
23266;SDS011;11802;53.160;8.214;2023-10-19T04:00:19;48.27;;;31.43;;
23266;SDS011;11802;53.160;8.214;2023-10-19T04:02:49;50.30;;;30.90;;
23266;SDS011;11802;53.160;8.214;2023-10-19T04:05:20;51.30;;;29.77;;
23266;SDS011;11802;53.160;8.214;2023-10-19T04:07:47;44.03;;;28.60;;
23266;SDS011;11802;53.160;8.214;2023-10-19T04:10:15;50.50;;;30.77;;
23266;SDS011;11802;53.160;8.214;2023-10-19T04:12:59;45.00;;;30.47;;
23266;SDS011;11802;53.160;8.214;2023-10-19T04:15:25;50.83;;;29.20;;
23266;SDS011;11802;53.160;8.214;2023-10-19T04:17:52;50.60;;;32.77;;
23266;SDS011;11802;53.160;8.214;2023-10-19T04:20:20;48.53;;;30.37;;
23266;SDS011;11802;53.160;8.214;2023-10-19T04:22:53;49.17;;;29.83;;
23266;SDS011;11802;53.160;8.214;2023-10-19T04:25:19;49.53;;;29.23;;
23266;SDS011;11802;53.160;8.214;2023-10-19T04:27:46;50.13;;;31.30;;
23266;SDS011;11802;53.160;8.214;2023-10-19T04:30:12;48.07;;;30.27;;
23266;SDS011;11802;53.160;8.214;2023-10-19T04:32:48;48.00;;;29.90;;
23266;SDS011;11802;53.160;8.214;2023-10-19T04:35:15;48.10;;;29.90;;
23266;SDS011;11802;53.160;8.214;2023-10-19T04:37:50;45.50;;;28.20;;
23266;SDS011;11802;53.160;8.214;2023-10-19T04:40:17;49.40;;;29.53;;
23266;SDS011;11802;53.160;8.214;2023-10-19T04:42:43;43.60;;;29.67;;
23266;SDS011;11802;53.160;8.214;2023-10-19T04:45:09;45.80;;;30.30;;
23266;SDS011;11802;53.160;8.214;2023-10-19T04:47:36;47.17;;;28.13;;
23266;SDS011;11802;53.160;8.214;2023-10-19T04:50:02;48.57;;;29.37;;
23266;SDS011;11802;53.160;8.214;2023-10-19T04:52:29;44.73;;;27.63;;
23266;SDS011;11802;53.160;8.214;2023-10-19T04:54:55;43.10;;;27.20;;
23266;SDS011;11802;53.160;8.214;2023-10-19T04:57:20;46.20;;;27.80;;
23266;SDS011;11802;53.160;8.214;2023-10-19T04:59:46;48.13;;;27.90;;
23266;SDS011;11802;53.160;8.214;2023-10-19T05:02:12;47.73;;;30.03;;
23266;SDS011;11802;53.160;8.214;2023-10-19T05:04:38;46.67;;;29.87;;
23266;SDS011;11802;53.160;8.214;2023-10-19T05:07:03;46.97;;;28.73;;
23266;SDS011;11802;53.160;8.214;2023-10-19T05:09:29;43.13;;;27.70;;
23266;SDS011;11802;53.160;8.214;2023-10-19T05:11:56;46.57;;;27.90;;
23266;SDS011;11802;53.160;8.214;2023-10-19T05:14:22;46.87;;;28.93;;
23266;SDS011;11802;53.160;8.214;2023-10-19T05:16:47;47.20;;;29.43;;
23266;SDS011;11802;53.160;8.214;2023-10-19T05:19:13;43.77;;;28.90;;
23266;SDS011;11802;53.160;8.214;2023-10-19T05:21:39;45.30;;;26.83;;
23266;SDS011;11802;53.160;8.214;2023-10-19T05:24:04;44.13;;;26.90;;
23266;SDS011;11802;53.160;8.214;2023-10-19T05:26:33;44.83;;;27.97;;
23266;SDS011;11802;53.160;8.214;2023-10-19T05:28:59;45.10;;;27.83;;
23266;SDS011;11802;53.160;8.214;2023-10-19T05:31:24;43.50;;;27.47;;
23266;SDS011;11802;53.160;8.214;2023-10-19T05:33:50;44.33;;;27.80;;
23266;SDS011;11802;53.160;8.214;2023-10-19T05:36:15;41.17;;;27.50;;
23266;SDS011;11802;53.160;8.214;2023-10-19T05:38:41;46.47;;;28.57;;
23266;SDS011;11802;53.160;8.214;2023-10-19T05:41:08;42.27;;;26.73;;
23266;SDS011;11802;53.160;8.214;2023-10-19T05:43:35;38.67;;;25.23;;
23266;SDS011;11802;53.160;8.214;2023-10-19T05:46:01;45.07;;;26.90;;
23266;SDS011;11802;53.160;8.214;2023-10-19T05:48:27;39.00;;;24.23;;
23266;SDS011;11802;53.160;8.214;2023-10-19T05:50:53;39.60;;;24.83;;
23266;SDS011;11802;53.160;8.214;2023-10-19T05:53:19;36.73;;;24.27;;
23266;SDS011;11802;53.160;8.214;2023-10-19T05:55:47;37.87;;;24.93;;
23266;SDS011;11802;53.160;8.214;2023-10-19T05:58:14;36.80;;;25.77;;
23266;SDS011;11802;53.160;8.214;2023-10-19T06:00:40;38.20;;;23.83;;
23266;SDS011;11802;53.160;8.214;2023-10-19T06:03:05;38.53;;;24.77;;
23266;SDS011;11802;53.160;8.214;2023-10-19T06:05:31;35.00;;;23.63;;
23266;SDS011;11802;53.160;8.214;2023-10-19T06:07:56;34.83;;;23.23;;
23266;SDS011;11802;53.160;8.214;2023-10-19T06:10:24;37.00;;;22.97;;
23266;SDS011;11802;53.160;8.214;2023-10-19T06:12:51;34.10;;;22.40;;
23266;SDS011;11802;53.160;8.214;2023-10-19T06:15:18;33.03;;;22.93;;
23266;SDS011;11802;53.160;8.214;2023-10-19T06:17:46;35.60;;;23.17;;
23266;SDS011;11802;53.160;8.214;2023-10-19T06:20:13;34.37;;;22.80;;
23266;SDS011;11802;53.160;8.214;2023-10-19T06:22:47;36.37;;;23.97;;
23266;SDS011;11802;53.160;8.214;2023-10-19T06:25:19;37.57;;;23.10;;
23266;SDS011;11802;53.160;8.214;2023-10-19T06:27:46;35.10;;;22.67;;
23266;SDS011;11802;53.160;8.214;2023-10-19T06:30:13;33.90;;;22.77;;
23266;SDS011;11802;53.160;8.214;2023-10-19T06:32:48;33.30;;;20.90;;
23266;SDS011;11802;53.160;8.214;2023-10-19T06:35:19;34.90;;;21.73;;
23266;SDS011;11802;53.160;8.214;2023-10-19T06:37:45;32.53;;;21.50;;
23266;SDS011;11802;53.160;8.214;2023-10-19T06:40:12;30.87;;;19.10;;
23266;SDS011;11802;53.160;8.214;2023-10-19T06:42:42;30.77;;;20.57;;
23266;SDS011;11802;53.160;8.214;2023-10-19T06:45:10;28.53;;;20.30;;
23266;SDS011;11802;53.160;8.214;2023-10-19T06:47:38;26.47;;;17.97;;
23266;SDS011;11802;53.160;8.214;2023-10-19T06:50:09;32.93;;;19.63;;
23266;SDS011;11802;53.160;8.214;2023-10-19T06:52:36;33.77;;;19.73;;
23266;SDS011;11802;53.160;8.214;2023-10-19T06:55:03;28.17;;;18.23;;
23266;SDS011;11802;53.160;8.214;2023-10-19T06:57:30;26.90;;;17.83;;
23266;SDS011;11802;53.160;8.214;2023-10-19T06:59:59;29.97;;;19.07;;
23266;SDS011;11802;53.160;8.214;2023-10-19T07:02:32;24.50;;;17.30;;
23266;SDS011;11802;53.160;8.214;2023-10-19T07:04:57;27.77;;;18.00;;
23266;SDS011;11802;53.160;8.214;2023-10-19T07:07:23;25.00;;;16.93;;
23266;SDS011;11802;53.160;8.214;2023-10-19T07:09:48;26.23;;;17.03;;
23266;SDS011;11802;53.160;8.214;2023-10-19T07:12:16;23.17;;;15.60;;
23266;SDS011;11802;53.160;8.214;2023-10-19T07:14:41;23.47;;;16.07;;
23266;SDS011;11802;53.160;8.214;2023-10-19T07:17:07;26.43;;;16.40;;
23266;SDS011;11802;53.160;8.214;2023-10-19T07:19:32;23.33;;;16.83;;
23266;SDS011;11802;53.160;8.214;2023-10-19T07:21:58;23.73;;;15.23;;
23266;SDS011;11802;53.160;8.214;2023-10-19T07:24:24;23.23;;;15.47;;
23266;SDS011;11802;53.160;8.214;2023-10-19T07:26:50;24.30;;;16.10;;
23266;SDS011;11802;53.160;8.214;2023-10-19T07:29:26;23.37;;;15.70;;
23266;SDS011;11802;53.160;8.214;2023-10-19T07:31:51;19.80;;;13.30;;
23266;SDS011;11802;53.160;8.214;2023-10-19T07:34:20;20.30;;;14.23;;
23266;SDS011;11802;53.160;8.214;2023-10-19T07:36:50;28.67;;;16.00;;
23266;SDS011;11802;53.160;8.214;2023-10-19T07:39:16;20.87;;;15.03;;
23266;SDS011;11802;53.160;8.214;2023-10-19T07:41:44;22.93;;;14.77;;
23266;SDS011;11802;53.160;8.214;2023-10-19T07:44:11;19.67;;;13.83;;
23266;SDS011;11802;53.160;8.214;2023-10-19T07:46:37;22.30;;;14.70;;
23266;SDS011;11802;53.160;8.214;2023-10-19T07:49:03;21.90;;;15.40;;
23266;SDS011;11802;53.160;8.214;2023-10-19T07:51:28;22.57;;;14.77;;
23266;SDS011;11802;53.160;8.214;2023-10-19T07:53:55;22.47;;;14.73;;
23266;SDS011;11802;53.160;8.214;2023-10-19T07:56:21;21.40;;;14.00;;
23266;SDS011;11802;53.160;8.214;2023-10-19T07:58:48;17.37;;;12.77;;
23266;SDS011;11802;53.160;8.214;2023-10-19T08:01:14;18.47;;;12.47;;
23266;SDS011;11802;53.160;8.214;2023-10-19T08:03:40;18.33;;;11.83;;
23266;SDS011;11802;53.160;8.214;2023-10-19T08:06:06;17.97;;;12.67;;
23266;SDS011;11802;53.160;8.214;2023-10-19T08:08:31;19.77;;;13.83;;
23266;SDS011;11802;53.160;8.214;2023-10-19T08:11:00;17.77;;;11.73;;
23266;SDS011;11802;53.160;8.214;2023-10-19T08:13:26;16.63;;;12.27;;
23266;SDS011;11802;53.160;8.214;2023-10-19T08:15:52;17.50;;;11.83;;
23266;SDS011;11802;53.160;8.214;2023-10-19T08:18:18;16.30;;;12.07;;
23266;SDS011;11802;53.160;8.214;2023-10-19T08:20:44;14.80;;;10.87;;
23266;SDS011;11802;53.160;8.214;2023-10-19T08:23:10;16.20;;;10.63;;
23266;SDS011;11802;53.160;8.214;2023-10-19T08:25:38;17.30;;;11.03;;
23266;SDS011;11802;53.160;8.214;2023-10-19T08:28:04;16.40;;;10.67;;
23266;SDS011;11802;53.160;8.214;2023-10-19T08:30:31;14.60;;;10.83;;
23266;SDS011;11802;53.160;8.214;2023-10-19T08:32:59;14.13;;;10.13;;
23266;SDS011;11802;53.160;8.214;2023-10-19T08:35:24;15.77;;;10.23;;
23266;SDS011;11802;53.160;8.214;2023-10-19T08:37:55;15.50;;;10.60;;
23266;SDS011;11802;53.160;8.214;2023-10-19T08:40:27;15.17;;;10.83;;
23266;SDS011;11802;53.160;8.214;2023-10-19T08:42:53;14.63;;;10.27;;
23266;SDS011;11802;53.160;8.214;2023-10-19T08:45:20;13.73;;;10.03;;
23266;SDS011;11802;53.160;8.214;2023-10-19T08:47:53;15.17;;;10.23;;
23266;SDS011;11802;53.160;8.214;2023-10-19T08:50:24;12.50;;;9.47;;
23266;SDS011;11802;53.160;8.214;2023-10-19T08:52:54;14.87;;;10.10;;
23266;SDS011;11802;53.160;8.214;2023-10-19T08:55:21;12.00;;;9.30;;
23266;SDS011;11802;53.160;8.214;2023-10-19T08:57:50;12.50;;;9.70;;
23266;SDS011;11802;53.160;8.214;2023-10-19T09:00:17;11.97;;;8.93;;
23266;SDS011;11802;53.160;8.214;2023-10-19T09:02:47;11.93;;;8.50;;
23266;SDS011;11802;53.160;8.214;2023-10-19T09:05:13;13.40;;;8.90;;
23266;SDS011;11802;53.160;8.214;2023-10-19T09:07:47;11.40;;;8.40;;
23266;SDS011;11802;53.160;8.214;2023-10-19T09:10:19;11.53;;;7.93;;
23266;SDS011;11802;53.160;8.214;2023-10-19T09:15:26;10.60;;;7.93;;
23266;SDS011;11802;53.160;8.214;2023-10-19T09:17:53;10.50;;;8.33;;
23266;SDS011;11802;53.160;8.214;2023-10-19T09:20:20;10.93;;;8.43;;
23266;SDS011;11802;53.160;8.214;2023-10-19T09:22:55;9.63;;;7.50;;
23266;SDS011;11802;53.160;8.214;2023-10-19T09:25:21;9.87;;;7.47;;
23266;SDS011;11802;53.160;8.214;2023-10-19T09:27:48;10.97;;;7.90;;
23266;SDS011;11802;53.160;8.214;2023-10-19T09:30:15;12.40;;;9.10;;
23266;SDS011;11802;53.160;8.214;2023-10-19T09:32:47;11.07;;;8.37;;
23266;SDS011;11802;53.160;8.214;2023-10-19T09:35:16;10.63;;;8.43;;
23266;SDS011;11802;53.160;8.214;2023-10-19T09:37:44;10.47;;;7.93;;
23266;SDS011;11802;53.160;8.214;2023-10-19T09:40:10;10.27;;;7.70;;
23266;SDS011;11802;53.160;8.214;2023-10-19T09:42:47;11.13;;;8.00;;
23266;SDS011;11802;53.160;8.214;2023-10-19T09:45:18;9.20;;;7.70;;
23266;SDS011;11802;53.160;8.214;2023-10-19T09:47:47;10.37;;;7.30;;
23266;SDS011;11802;53.160;8.214;2023-10-19T09:50:15;9.83;;;7.90;;
23266;SDS011;11802;53.160;8.214;2023-10-19T09:52:41;9.83;;;7.53;;
23266;SDS011;11802;53.160;8.214;2023-10-19T09:55:23;12.13;;;8.60;;
23266;SDS011;11802;53.160;8.214;2023-10-19T09:58:12;11.60;;;8.63;;
23266;SDS011;11802;53.160;8.214;2023-10-19T10:00:47;11.53;;;8.40;;
23266;SDS011;11802;53.160;8.214;2023-10-19T10:06:07;9.53;;;7.50;;
23266;SDS011;11802;53.160;8.214;2023-10-19T10:08:33;9.67;;;7.50;;
23266;SDS011;11802;53.160;8.214;2023-10-19T10:11:13;11.30;;;7.17;;
23266;SDS011;11802;53.160;8.214;2023-10-19T10:13:43;9.80;;;7.80;;
23266;SDS011;11802;53.160;8.214;2023-10-19T10:16:15;9.70;;;7.57;;
23266;SDS011;11802;53.160;8.214;2023-10-19T10:18:42;10.23;;;7.87;;
23266;SDS011;11802;53.160;8.214;2023-10-19T10:21:11;10.37;;;8.50;;
23266;SDS011;11802;53.160;8.214;2023-10-19T10:23:50;9.33;;;7.50;;
23266;SDS011;11802;53.160;8.214;2023-10-19T10:26:18;10.00;;;7.33;;
23266;SDS011;11802;53.160;8.214;2023-10-19T10:29:07;9.37;;;6.87;;
23266;SDS011;11802;53.160;8.214;2023-10-19T10:31:34;8.37;;;6.87;;
23266;SDS011;11802;53.160;8.214;2023-10-19T10:34:05;10.13;;;7.90;;
23266;SDS011;11802;53.160;8.214;2023-10-19T10:39:24;9.40;;;7.50;;
23266;SDS011;11802;53.160;8.214;2023-10-19T10:41:55;9.13;;;7.10;;
23266;SDS011;11802;53.160;8.214;2023-10-19T10:44:36;9.30;;;7.43;;
23266;SDS011;11802;53.160;8.214;2023-10-19T10:47:04;9.37;;;7.00;;
23266;SDS011;11802;53.160;8.214;2023-10-19T10:49:55;9.03;;;6.70;;
23266;SDS011;11802;53.160;8.214;2023-10-19T10:52:32;8.67;;;7.13;;
23266;SDS011;11802;53.160;8.214;2023-10-19T10:55:06;8.10;;;6.57;;
23266;SDS011;11802;53.160;8.214;2023-10-19T10:57:36;9.47;;;7.17;;
23266;SDS011;11802;53.160;8.214;2023-10-19T11:00:02;8.73;;;7.10;;
23266;SDS011;11802;53.160;8.214;2023-10-19T11:02:40;10.17;;;7.43;;
23266;SDS011;11802;53.160;8.214;2023-10-19T11:05:14;8.73;;;7.13;;
23266;SDS011;11802;53.160;8.214;2023-10-19T11:10:29;9.17;;;7.23;;
23266;SDS011;11802;53.160;8.214;2023-10-19T11:13:02;10.53;;;7.20;;
23266;SDS011;11802;53.160;8.214;2023-10-19T11:15:28;9.90;;;7.17;;
23266;SDS011;11802;53.160;8.214;2023-10-19T11:17:54;9.93;;;8.00;;
23266;SDS011;11802;53.160;8.214;2023-10-19T11:20:21;7.93;;;6.87;;
23266;SDS011;11802;53.160;8.214;2023-10-19T11:22:48;10.10;;;8.20;;
23266;SDS011;11802;53.160;8.214;2023-10-19T11:25:25;9.03;;;8.10;;
23266;SDS011;11802;53.160;8.214;2023-10-19T11:30:30;11.13;;;9.20;;
23266;SDS011;11802;53.160;8.214;2023-10-19T11:32:57;11.83;;;9.60;;
23266;SDS011;11802;53.160;8.214;2023-10-19T11:35:33;12.83;;;9.80;;
23266;SDS011;11802;53.160;8.214;2023-10-19T11:38:00;13.80;;;10.03;;
23266;SDS011;11802;53.160;8.214;2023-10-19T11:40:27;12.73;;;10.90;;
23266;SDS011;11802;53.160;8.214;2023-10-19T11:42:53;12.33;;;10.20;;
23266;SDS011;11802;53.160;8.214;2023-10-19T11:45:25;12.93;;;10.47;;
23266;SDS011;11802;53.160;8.214;2023-10-19T11:47:51;12.90;;;11.00;;
23266;SDS011;11802;53.160;8.214;2023-10-19T11:50:17;13.63;;;11.80;;
23266;SDS011;11802;53.160;8.214;2023-10-19T11:52:44;14.13;;;11.97;;
23266;SDS011;11802;53.160;8.214;2023-10-19T11:55:11;16.30;;;12.77;;
23266;SDS011;11802;53.160;8.214;2023-10-19T11:57:38;15.40;;;12.60;;
23266;SDS011;11802;53.160;8.214;2023-10-19T12:00:05;13.23;;;10.87;;
23266;SDS011;11802;53.160;8.214;2023-10-19T12:02:34;13.97;;;10.13;;
23266;SDS011;11802;53.160;8.214;2023-10-19T12:05:02;13.07;;;10.97;;
23266;SDS011;11802;53.160;8.214;2023-10-19T12:07:29;13.27;;;10.07;;
23266;SDS011;11802;53.160;8.214;2023-10-19T12:09:55;12.50;;;9.97;;
23266;SDS011;11802;53.160;8.214;2023-10-19T12:12:21;12.17;;;10.40;;
23266;SDS011;11802;53.160;8.214;2023-10-19T12:14:46;14.13;;;10.20;;
23266;SDS011;11802;53.160;8.214;2023-10-19T12:17:12;13.90;;;10.27;;
23266;SDS011;11802;53.160;8.214;2023-10-19T12:19:38;13.87;;;11.47;;
23266;SDS011;11802;53.160;8.214;2023-10-19T12:22:03;13.37;;;10.70;;
23266;SDS011;11802;53.160;8.214;2023-10-19T12:24:29;13.77;;;11.13;;
23266;SDS011;11802;53.160;8.214;2023-10-19T12:26:54;12.83;;;10.23;;
23266;SDS011;11802;53.160;8.214;2023-10-19T12:29:21;12.00;;;10.57;;
23266;SDS011;11802;53.160;8.214;2023-10-19T12:31:47;12.00;;;9.83;;
23266;SDS011;11802;53.160;8.214;2023-10-19T12:34:13;13.87;;;10.43;;
23266;SDS011;11802;53.160;8.214;2023-10-19T12:36:38;13.30;;;11.10;;
23266;SDS011;11802;53.160;8.214;2023-10-19T12:39:05;13.50;;;10.80;;
23266;SDS011;11802;53.160;8.214;2023-10-19T12:41:31;15.00;;;10.23;;
23266;SDS011;11802;53.160;8.214;2023-10-19T12:43:57;13.10;;;10.70;;
23266;SDS011;11802;53.160;8.214;2023-10-19T12:46:25;14.07;;;10.73;;
23266;SDS011;11802;53.160;8.214;2023-10-19T12:48:54;12.63;;;9.87;;
23266;SDS011;11802;53.160;8.214;2023-10-19T12:51:21;14.53;;;10.83;;
23266;SDS011;11802;53.160;8.214;2023-10-19T12:53:52;14.20;;;10.57;;
23266;SDS011;11802;53.160;8.214;2023-10-19T12:56:19;13.70;;;11.00;;
23266;SDS011;11802;53.160;8.214;2023-10-19T12:58:45;15.10;;;11.43;;
23266;SDS011;11802;53.160;8.214;2023-10-19T13:01:10;15.00;;;11.93;;
23266;SDS011;11802;53.160;8.214;2023-10-19T13:03:43;15.23;;;11.47;;
23266;SDS011;11802;53.160;8.214;2023-10-19T13:06:11;15.03;;;12.27;;
23266;SDS011;11802;53.160;8.214;2023-10-19T13:08:37;16.23;;;11.53;;
23266;SDS011;11802;53.160;8.214;2023-10-19T13:11:05;15.80;;;12.70;;
23266;SDS011;11802;53.160;8.214;2023-10-19T13:13:31;15.90;;;12.77;;
23266;SDS011;11802;53.160;8.214;2023-10-19T13:15:57;16.13;;;12.30;;
23266;SDS011;11802;53.160;8.214;2023-10-19T13:18:23;16.73;;;13.07;;
23266;SDS011;11802;53.160;8.214;2023-10-19T13:20:55;17.87;;;13.67;;
23266;SDS011;11802;53.160;8.214;2023-10-19T13:23:21;18.17;;;13.77;;
23266;SDS011;11802;53.160;8.214;2023-10-19T13:25:48;17.83;;;13.43;;
23266;SDS011;11802;53.160;8.214;2023-10-19T13:28:33;19.33;;;14.07;;
23266;SDS011;11802;53.160;8.214;2023-10-19T13:31:00;19.37;;;13.57;;
23266;SDS011;11802;53.160;8.214;2023-10-19T13:33:25;18.03;;;14.37;;
23266;SDS011;11802;53.160;8.214;2023-10-19T13:35:51;19.10;;;14.57;;
23266;SDS011;11802;53.160;8.214;2023-10-19T13:38:17;21.63;;;14.63;;
23266;SDS011;11802;53.160;8.214;2023-10-19T13:40:47;19.70;;;14.97;;
23266;SDS011;11802;53.160;8.214;2023-10-19T13:43:15;20.83;;;14.70;;
23266;SDS011;11802;53.160;8.214;2023-10-19T13:45:43;20.60;;;15.30;;
23266;SDS011;11802;53.160;8.214;2023-10-19T13:48:09;21.57;;;15.80;;
23266;SDS011;11802;53.160;8.214;2023-10-19T13:50:40;21.57;;;15.97;;
23266;SDS011;11802;53.160;8.214;2023-10-19T13:53:07;22.93;;;16.47;;
23266;SDS011;11802;53.160;8.214;2023-10-19T13:55:34;19.70;;;15.30;;
23266;SDS011;11802;53.160;8.214;2023-10-19T13:58:04;20.87;;;15.53;;
23266;SDS011;11802;53.160;8.214;2023-10-19T14:00:31;17.17;;;13.37;;
23266;SDS011;11802;53.160;8.214;2023-10-19T14:03:05;21.57;;;15.10;;
23266;SDS011;11802;53.160;8.214;2023-10-19T14:05:38;20.80;;;15.47;;
23266;SDS011;11802;53.160;8.214;2023-10-19T14:08:13;20.50;;;15.60;;
23266;SDS011;11802;53.160;8.214;2023-10-19T14:10:40;17.90;;;14.13;;
23266;SDS011;11802;53.160;8.214;2023-10-19T14:13:06;20.07;;;15.07;;
23266;SDS011;11802;53.160;8.214;2023-10-19T14:15:32;19.67;;;14.57;;
23266;SDS011;11802;53.160;8.214;2023-10-19T14:17:59;20.97;;;14.70;;
23266;SDS011;11802;53.160;8.214;2023-10-19T14:20:25;19.60;;;14.80;;
23266;SDS011;11802;53.160;8.214;2023-10-19T14:22:54;19.00;;;14.87;;
23266;SDS011;11802;53.160;8.214;2023-10-19T14:25:20;21.57;;;15.33;;
23266;SDS011;11802;53.160;8.214;2023-10-19T14:27:47;20.90;;;15.10;;
23266;SDS011;11802;53.160;8.214;2023-10-19T14:30:15;20.00;;;14.93;;
23266;SDS011;11802;53.160;8.214;2023-10-19T14:32:43;21.50;;;16.13;;
23266;SDS011;11802;53.160;8.214;2023-10-19T14:35:10;20.43;;;14.27;;
23266;SDS011;11802;53.160;8.214;2023-10-19T14:37:40;21.43;;;15.27;;
23266;SDS011;11802;53.160;8.214;2023-10-19T14:42:40;25.57;;;17.27;;
23266;SDS011;11802;53.160;8.214;2023-10-19T14:45:10;23.73;;;16.17;;
23266;SDS011;11802;53.160;8.214;2023-10-19T14:47:38;22.73;;;15.83;;
23266;SDS011;11802;53.160;8.214;2023-10-19T14:50:14;25.00;;;16.73;;
23266;SDS011;11802;53.160;8.214;2023-10-19T14:52:43;21.63;;;15.20;;
23266;SDS011;11802;53.160;8.214;2023-10-19T14:55:10;20.53;;;14.90;;
23266;SDS011;11802;53.160;8.214;2023-10-19T14:57:36;21.90;;;15.77;;
23266;SDS011;11802;53.160;8.214;2023-10-19T15:00:06;23.00;;;15.40;;